Portada
METAR-TAF:

METAR-TAF

Aeroports :

Lee's Summit Municipal Airport

Lee's Summit, Missouri, Estats Units d'Amèrica

latitud: 38-57-35N, longitud: 094-22-18W, altitud: 306 m

Observació

L'informe es va fer fa 1 hora i 1 minuts, a les 18:53 UTC
Vent 14 kt del Sud-Oest amb ràfegues de 19 kt
Temperatura 24°C
Humitat 61%
Pressió 1008 hPa
Visibilitat: 16.1 km
Cel clar

METAR: KLXT 071853Z AUTO 23014G19KT 10SM CLR 24/16 A2977 RMK AO2 SLP073 T02390161

Hora: 14:54 (19:54 UTC)


TAF: manca

Observacions i pronòstics meteorològics de més de 4000 aeroports (METAR i TAF).

Les estacions disponibles són els punts grocs i vermells al mapa.

Posi el ratolí al punt desitjat per veure el nom de l'estació.

Feu clic per veure les observacions i els pronòstics meteorològics.

Per canviar el mapa: feu clic els botons verds amb una creu de color negre per apropar; al botó verd amb un guió per allunyar la imatge; o en les fletxes verdes per a mapes adjacents.


METAR-TAF: